• Join FlightAware (Why Join?)
  • Login
  • US Flag 
08:51PM EST


 

Airport Tracker/Info


-or-


 

Live Flight TrackerFlight Track Log ✈ N465TP ✈ 30-Jan-2014 ✈ KBIL - KCOD

Flight Track Log - Related Links

Times and Time Zones

All times are in EST time to prevent confusion due to time zone crossing. See the N465TP flight status page for this flight to view local times or setup timezone preferences in your user account.

Time Position Orientation Groundspeed Altitude Reporting Facility
EST Latitude Longitude Course Direction KTS MPH feet Rate Location/Type
04:12PM 45.7992 -108.5125 175° South 143 165 4,700  Level Salt Lake Center
04:13PM 45.7622 -108.5081 175° South 151 174 6,200 1,500 Climbing Salt Lake Center
04:14PM 45.7147 -108.5292 197° South 166 191 7,800 1,560 Climbing Salt Lake Center
04:15PM 45.6725 -108.5467 196° South 161 185 9,500 1,440 Climbing Salt Lake Center
04:16PM 45.6297 -108.5656 197° South 162 186 10,800 1,380 Climbing Salt Lake Center
04:17PM 45.5800 -108.5867 197° South 172 198 12,400 1,320 Climbing Salt Lake Center
04:18PM 45.5333 -108.6061 196° South 176 203 13,600 780 Climbing Salt Lake Center
04:19PM 45.4750 -108.6317 197° South 201 231 14,000 180 Climbing Salt Lake Center
04:20PM 45.4158 -108.6556 196° South 220 253 14,000  Level Salt Lake Center
04:21PM 45.3572 -108.6800 196° South 221 254 14,100  Climbing Salt Lake Center
04:22PM 45.2936 -108.7072 197° South 223 257 14,100  Level Salt Lake Center
04:23PM 45.2350 -108.7319 197° South 223 257 14,100  Level Salt Lake Center
04:24PM 45.1728 -108.7581 196° South 219 252 14,100  Level Salt Lake Center
04:25PM 45.1150 -108.7811 196° South 217 250 14,100 -120 Level Salt Lake Center
04:26PM 45.0639 -108.8044 198° South 213 245 13,900 -120 Descending Salt Lake Center
04:27PM 45.0058 -108.8258 195° South 214 246 13,900  Level Salt Lake Center
04:28PM 44.9347 -108.8517 194° South 219 252 13,900  Level Salt Lake Center
04:29PM 44.8750 -108.8731 194° South 221 254 13,900  Level Salt Lake Center
04:30PM 44.8169 -108.8942 194° South 219 252 13,900 -300 Level Salt Lake Center
04:31PM 44.7608 -108.9164 196° South 216 249 13,300 -780 Descending Salt Lake Center
04:32PM 44.7047 -108.9372 195° South 213 245 12,400 -1,020 Descending Salt Lake Center
04:33PM 44.6483 -108.9575 194° South 210 242 11,300 -1,020 Descending Salt Lake Center
04:34PM 44.5986 -108.9414 167° South 223 257 10,400 -960 Descending Salt Lake Center
04:35PM 44.6406 -108.9214 19° North 205 236 9,400 -900 Descending Salt Lake Center
04:36PM 44.6933 -108.9192 North 185 213 8,600 -720 Descending Salt Lake Center
04:38PM 44.7169 -108.8672 57° Northeast 181 208 8,000 -360 Descending Salt Lake Center
04:39PM 44.7047 -108.9189 252° West 179 206 7,900 -540 Descending Salt Lake Center
04:40PM 44.6564 -108.9486 204° Southwest 185 213 6,900 -780 Descending Salt Lake Center
04:41PM 44.6125 -108.9742 203° Southwest 180 207 6,400 -540 Descending Salt Lake Center
04:42PM 44.5747 -108.9958 202° Southwest 167 192 5,900 -300 Descending Salt Lake Center
04:43PM 44.5386 -109.0175 203° Southwest 156 180 5,800 -120 Descending Salt Lake Center
04:44PM 44.5206 -109.0658 242° Southwest 145 167 5,700 -120 Descending Salt Lake Center